Time;durP1;ratioP1;P1;durP2;ratioP2;P2;SDS_P1;SDS_P2;PMS_P1;PMS_P2;Temp;Humidity;BMP_temperature;BMP_pressure;BME280_temperature;BME280_humidity;BME280_pressure;Samples;Min_cycle;Max_cycle;Signal;HPM_P1;HPM_P2
2023/05/11 00:01:06;;;;;;;17.88;12.25;;;12.90;99.90;;;;;;5069665;28;20421;-61
2023/05/11 00:03:32;;;;;;;18.70;11.68;;;12.90;99.90;;;;;;5070596;28;20060;-60
2023/05/11 00:05:59;;;;;;;18.30;12.38;;;12.90;99.90;;;;;;5070094;28;20028;-60
2023/05/11 00:08:25;;;;;;;19.02;11.57;;;12.80;99.90;;;;;;5071247;28;20490;-61
2023/05/11 00:10:51;;;;;;;19.40;12.00;;;12.90;99.90;;;;;;5069562;28;20498;-61
2023/05/11 00:13:17;;;;;;;18.80;12.18;;;12.90;99.90;;;;;;5071883;28;20036;-61
2023/05/11 00:15:42;;;;;;;24.27;12.88;;;12.90;99.90;;;;;;5071920;28;20028;-61
2023/05/11 00:18:08;;;;;;;20.50;12.25;;;12.90;99.90;;;;;;5071626;28;20055;-61
2023/05/11 00:20:34;;;;;;;20.98;12.93;;;12.80;99.90;;;;;;5064827;28;20036;-62
2023/05/11 00:22:59;;;;;;;23.23;14.25;;;12.80;99.90;;;;;;5071831;28;20033;-61
2023/05/11 00:25:25;;;;;;;23.92;13.93;;;12.80;99.90;;;;;;5072135;28;20036;-61
2023/05/11 00:27:51;;;;;;;25.27;15.18;;;12.80;99.90;;;;;;5070481;28;20052;-61
2023/05/11 00:30:16;;;;;;;25.80;14.32;;;12.70;99.90;;;;;;5070647;28;20043;-61
2023/05/11 00:32:43;;;;;;;22.63;14.57;;;12.70;99.90;;;;;;5069181;28;20040;-61
2023/05/11 00:35:10;;;;;;;23.92;13.98;;;12.70;99.90;;;;;;5071931;28;20044;-61
2023/05/11 00:37:37;;;;;;;25.42;14.38;;;12.70;99.90;;;;;;5071617;28;20040;-61
2023/05/11 00:40:03;;;;;;;27.65;15.77;;;12.70;99.90;;;;;;5067554;28;20051;-62
2023/05/11 00:42:28;;;;;;;24.42;14.90;;;12.70;99.90;;;;;;5067707;28;20037;-61
2023/05/11 00:44:54;;;;;;;26.25;14.73;;;12.60;99.90;;;;;;5071748;28;20039;-61
2023/05/11 00:47:19;;;;;;;26.02;14.30;;;12.60;99.90;;;;;;5067963;28;20044;-61
2023/05/11 00:49:45;;;;;;;26.67;15.35;;;12.60;99.90;;;;;;5068746;28;20434;-61
2023/05/11 00:52:11;;;;;;;27.92;15.80;;;12.60;99.90;;;;;;5069771;28;20037;-61
2023/05/11 00:54:38;;;;;;;26.45;15.27;;;12.60;99.90;;;;;;5071386;28;20032;-61
2023/05/11 00:57:04;;;;;;;26.10;15.80;;;12.60;99.90;;;;;;5068784;28;20601;-61
2023/05/11 00:59:29;;;;;;;25.65;15.63;;;12.60;99.90;;;;;;5069700;28;20032;-61
2023/05/11 01:01:56;;;;;;;25.52;15.20;;;12.60;99.90;;;;;;5069387;28;20102;-61
2023/05/11 01:04:21;;;;;;;26.10;15.90;;;12.60;99.90;;;;;;5071800;28;20029;-61
2023/05/11 01:06:59;;;;;;;27.08;15.60;;;12.60;99.90;;;;;;5071428;28;20035;-61
2023/05/11 01:10:00;;;;;;;28.52;15.82;;;12.60;99.90;;;;;;5070512;28;20043;-61
2023/05/11 01:12:35;;;;;;;27.48;16.48;;;12.60;99.90;;;;;;5057285;28;20056;-61
2023/05/11 01:15:13;;;;;;;29.05;16.42;;;12.60;99.90;;;;;;5071615;28;20387;-61
2023/05/11 01:18:05;;;;;;;30.75;15.63;;;12.60;99.90;;;;;;5068689;28;20048;-61
2023/05/11 01:20:30;;;;;;;29.02;16.20;;;12.50;99.90;;;;;;5067332;28;20040;-61
2023/05/11 01:23:15;;;;;;;25.08;14.73;;;12.50;99.90;;;;;;5069893;28;20094;-61
2023/05/11 01:26:18;;;;;;;27.50;15.40;;;12.50;99.90;;;;;;5069862;28;20041;-61
2023/05/11 01:29:28;;;;;;;32.17;16.92;;;12.50;99.90;;;;;;5066561;28;20498;-62
2023/05/11 01:31:56;;;;;;;29.95;15.40;;;12.50;99.90;;;;;;5068031;28;20037;-61
2023/05/11 01:34:25;;;;;;;27.88;16.25;;;12.50;99.90;;;;;;5070958;28;20038;-61
2023/05/11 01:37:09;;;;;;;29.20;16.30;;;12.50;99.90;;;;;;5068651;28;20112;-61
2023/05/11 01:39:38;;;;;;;31.15;16.60;;;12.50;99.90;;;;;;5064785;28;20103;-61
2023/05/11 01:42:08;;;;;;;31.83;17.27;;;12.40;99.90;;;;;;5069777;28;20037;-61
2023/05/11 01:44:36;;;;;;;31.15;17.15;;;12.40;99.90;;;;;;5070845;28;20036;-61
2023/05/11 01:47:03;;;;;;;29.83;17.73;;;12.40;99.90;;;;;;5069396;28;20041;-61
2023/05/11 01:49:34;;;;;;;30.08;16.52;;;12.40;99.90;;;;;;5070346;28;20037;-62
2023/05/11 01:52:02;;;;;;;30.83;17.88;;;12.40;99.90;;;;;;5083088;22;20066;-66
2023/05/11 01:54:30;;;;;;;33.40;17.73;;;12.50;99.90;;;;;;5070209;28;20047;-66
2023/05/11 01:56:58;;;;;;;31.88;17.67;;;12.40;99.90;;;;;;5069539;28;20040;-66
2023/05/11 01:59:28;;;;;;;34.88;18.95;;;12.40;99.90;;;;;;5064755;28;20040;-66
2023/05/11 02:01:56;;;;;;;35.53;19.23;;;12.50;99.90;;;;;;5071095;28;20131;-66
2023/05/11 02:04:22;;;;;;;35.08;18.80;;;12.40;99.90;;;;;;5061924;28;20037;-66
2023/05/11 02:06:49;;;;;;;33.70;17.88;;;12.40;99.90;;;;;;5049775;28;20033;-66
2023/05/11 02:09:20;;;;;;;34.88;18.08;;;12.40;99.90;;;;;;5056059;28;20494;-66
2023/05/11 02:11:48;;;;;;;33.70;18.67;;;12.40;99.90;;;;;;5057194;28;20044;-66
2023/05/11 02:14:16;;;;;;;35.80;19.00;;;12.40;99.90;;;;;;5065549;28;20037;-66
2023/05/11 02:16:43;;;;;;;35.83;18.30;;;12.40;99.90;;;;;;5061633;28;20079;-67
2023/05/11 02:19:11;;;;;;;36.60;19.30;;;12.40;99.90;;;;;;5052038;28;20084;-66
2023/05/11 02:21:38;;;;;;;40.30;19.58;;;12.40;99.90;;;;;;5062039;28;20049;-66
2023/05/11 02:24:05;;;;;;;39.63;20.27;;;12.40;99.90;;;;;;5066440;28;20031;-66
2023/05/11 02:26:31;;;;;;;42.50;20.52;;;12.30;99.90;;;;;;5045518;28;20406;-66
2023/05/11 02:28:57;;;;;;;43.45;21.95;;;12.30;99.90;;;;;;5054054;28;20045;-66
2023/05/11 02:31:29;;;;;;;39.67;21.45;;;12.30;99.90;;;;;;5052741;28;20044;-66
2023/05/11 02:34:03;;;;;;;39.33;19.95;;;12.30;99.90;;;;;;5059161;28;20524;-66
2023/05/11 02:36:31;;;;;;;48.47;21.60;;;12.30;99.90;;;;;;5063190;28;20041;-66
2023/05/11 02:39:04;;;;;;;47.42;21.83;;;12.20;99.90;;;;;;5036420;28;20469;-66
2023/05/11 02:41:32;;;;;;;45.75;22.73;;;12.20;99.90;;;;;;5072549;28;20498;-67
2023/05/11 02:44:01;;;;;;;49.20;22.45;;;12.20;99.90;;;;;;5062094;28;20037;-66
2023/05/11 02:46:32;;;;;;;47.03;23.20;;;12.20;99.90;;;;;;5064473;28;20037;-66
2023/05/11 02:48:59;;;;;;;48.95;22.20;;;12.20;99.90;;;;;;5053717;28;20556;-67
2023/05/11 02:51:37;;;;;;;46.75;22.80;;;12.20;99.90;;;;;;5053282;28;20079;-66
2023/05/11 02:54:08;;;;;;;44.70;22.13;;;12.20;99.90;;;;;;5053476;28;20044;-66
2023/05/11 02:56:34;;;;;;;47.50;22.17;;;12.20;99.90;;;;;;5050421;28;20044;-67
2023/05/11 02:59:01;;;;;;;44.72;22.75;;;12.20;99.90;;;;;;5053383;28;20039;-66
2023/05/11 03:01:27;;;;;;;44.40;22.17;;;12.20;99.90;;;;;;5059993;28;20111;-67
2023/05/11 03:03:53;;;;;;;42.28;21.85;;;12.20;99.90;;;;;;5060773;28;20495;-66
2023/05/11 03:06:19;;;;;;;47.80;23.00;;;12.20;99.90;;;;;;5050216;28;20028;-67
2023/05/11 03:08:45;;;;;;;48.50;22.52;;;12.20;99.90;;;;;;5050481;28;20464;-67
2023/05/11 03:11:13;;;;;;;45.70;22.33;;;12.20;99.90;;;;;;5062696;28;20502;-66
2023/05/11 03:13:41;;;;;;;44.38;22.55;;;12.20;99.90;;;;;;5073553;28;20036;-67
2023/05/11 03:16:08;;;;;;;44.13;22.90;;;12.20;99.90;;;;;;5063507;28;20043;-66
2023/05/11 03:18:35;;;;;;;49.42;24.05;;;12.10;99.90;;;;;;5044270;28;20034;-67
2023/05/11 03:21:01;;;;;;;54.80;26.17;;;12.10;99.90;;;;;;5060627;28;20127;-67
2023/05/11 03:23:28;;;;;;;56.97;24.50;;;12.10;99.90;;;;;;5052592;28;20045;-67
2023/05/11 03:25:55;;;;;;;54.63;25.60;;;12.10;99.90;;;;;;5051441;28;20044;-67
2023/05/11 03:28:23;;;;;;;50.90;25.13;;;12.10;99.90;;;;;;5051633;28;20041;-67
2023/05/11 03:30:51;;;;;;;50.78;25.15;;;12.10;99.90;;;;;;5060728;28;20037;-67
2023/05/11 03:33:18;;;;;;;55.17;25.42;;;12.00;99.90;;;;;;5052699;28;20417;-66
2023/05/11 03:35:46;;;;;;;56.97;26.45;;;12.10;99.90;;;;;;5049895;28;20114;-67
2023/05/11 03:38:13;;;;;;;58.40;25.63;;;12.00;99.90;;;;;;5050081;28;20429;-66
2023/05/11 03:40:41;;;;;;;64.93;28.95;;;12.00;99.90;;;;;;5060561;28;20053;-67
2023/05/11 03:43:10;;;;;;;68.95;29.33;;;12.00;99.90;;;;;;5052692;28;20045;-67
2023/05/11 03:45:37;;;;;;;70.65;29.15;;;12.00;99.90;;;;;;5051574;28;20041;-66
2023/05/11 03:48:04;;;;;;;65.60;28.33;;;12.00;99.90;;;;;;5048880;28;20040;-67
2023/05/11 03:50:30;;;;;;;72.45;28.92;;;12.00;99.90;;;;;;5059838;28;20041;-66
2023/05/11 03:52:57;;;;;;;71.82;29.90;;;12.00;99.90;;;;;;5055241;28;20467;-66
2023/05/11 03:55:23;;;;;;;66.50;28.10;;;12.00;99.90;;;;;;5042219;28;20051;-66
2023/05/11 03:57:50;;;;;;;68.45;28.13;;;12.00;99.90;;;;;;5051714;28;20041;-66
2023/05/11 04:00:15;;;;;;;58.30;25.50;;;12.00;99.90;;;;;;5052074;28;20041;-66
2023/05/11 04:02:41;;;;;;;58.97;25.90;;;12.00;99.90;;;;;;5038198;28;20038;-66
2023/05/11 04:05:08;;;;;;;56.60;24.10;;;12.10;99.90;;;;;;5055475;28;20104;-66
2023/05/11 04:07:36;;;;;;;47.60;21.95;;;12.00;99.90;;;;;;5057735;28;20147;-66
2023/05/11 04:10:02;;;;;;;47.13;21.52;;;12.10;99.90;;;;;;5058256;28;20114;-66
2023/05/11 04:12:28;;;;;;;47.65;20.77;;;12.00;99.90;;;;;;5059483;28;20647;-66
2023/05/11 04:14:53;;;;;;;44.35;19.92;;;12.00;99.90;;;;;;5064526;28;20119;-66
2023/05/11 04:17:19;;;;;;;43.45;20.20;;;12.00;99.90;;;;;;5051446;28;20033;-66
2023/05/11 04:19:44;;;;;;;40.85;19.70;;;12.00;99.90;;;;;;5051558;28;20041;-66
2023/05/11 04:22:11;;;;;;;42.63;19.55;;;12.00;99.90;;;;;;5058496;28;20120;-66
2023/05/11 04:24:37;;;;;;;41.75;19.38;;;12.00;99.90;;;;;;5061445;28;20040;-66
2023/05/11 04:27:02;;;;;;;37.80;18.75;;;11.90;99.90;;;;;;5049662;28;20111;-66
2023/05/11 04:29:28;;;;;;;39.15;18.70;;;11.90;99.90;;;;;;5052054;28;20155;-67
2023/05/11 04:31:54;;;;;;;39.50;18.40;;;11.90;99.90;;;;;;5053519;28;20033;-66
2023/05/11 04:34:19;;;;;;;36.63;17.73;;;12.00;99.90;;;;;;5062789;28;20044;-67
2023/05/11 04:36:49;;;;;;;37.50;18.13;;;12.00;99.90;;;;;;5053582;28;20036;-66
2023/05/11 04:39:15;;;;;;;44.20;18.30;;;12.00;99.90;;;;;;5051459;28;20033;-66
2023/05/11 04:41:42;;;;;;;36.20;17.55;;;12.00;99.90;;;;;;5050724;28;20048;-67
2023/05/11 04:44:08;;;;;;;36.80;17.73;;;12.00;99.90;;;;;;5059615;28;20047;-66
2023/05/11 04:46:33;;;;;;;40.28;18.98;;;12.00;99.90;;;;;;5048286;28;20033;-66
2023/05/11 04:48:59;;;;;;;39.88;18.23;;;11.90;99.90;;;;;;5051060;28;20041;-67
2023/05/11 04:51:24;;;;;;;40.72;18.73;;;12.00;99.90;;;;;;5054457;28;20036;-66
2023/05/11 04:53:50;;;;;;;43.45;20.23;;;11.90;99.90;;;;;;5063059;28;20437;-66
2023/05/11 04:56:16;;;;;;;40.22;18.83;;;11.90;99.90;;;;;;5056039;28;20040;-66
2023/05/11 04:58:42;;;;;;;38.83;17.85;;;12.00;99.90;;;;;;5050330;28;20044;-66
2023/05/11 05:01:07;;;;;;;44.22;19.13;;;12.00;99.90;;;;;;5050758;28;20037;-66
2023/05/11 05:03:33;;;;;;;37.72;17.77;;;12.00;99.90;;;;;;5059130;28;20669;-66
2023/05/11 05:05:58;;;;;;;40.80;19.33;;;12.00;99.90;;;;;;5049826;28;20499;-67
2023/05/11 05:08:24;;;;;;;36.47;18.13;;;12.00;99.90;;;;;;5051838;28;20090;-66
2023/05/11 05:10:50;;;;;;;36.47;17.80;;;12.00;99.90;;;;;;5045962;28;20060;-67
2023/05/11 05:13:15;;;;;;;34.92;17.15;;;12.00;99.90;;;;;;5047472;28;20071;-67
2023/05/11 05:15:41;;;;;;;36.72;17.15;;;12.00;99.90;;;;;;5032474;28;20426;-66
2023/05/11 05:18:07;;;;;;;33.95;16.50;;;12.00;99.90;;;;;;5037936;28;20041;-66
2023/05/11 05:20:33;;;;;;;33.53;16.90;;;12.00;99.90;;;;;;5049335;28;20068;-67
2023/05/11 05:23:00;;;;;;;31.83;16.10;;;12.00;99.90;;;;;;5047725;28;20483;-66
2023/05/11 05:25:25;;;;;;;33.17;17.05;;;12.10;99.90;;;;;;5049809;28;20495;-66
2023/05/11 05:27:51;;;;;;;34.30;16.88;;;12.10;99.90;;;;;;5051246;28;20041;-67
2023/05/11 05:30:16;;;;;;;31.58;15.82;;;12.10;99.90;;;;;;5058405;28;20079;-66
2023/05/11 05:32:42;;;;;;;30.85;16.33;;;12.10;99.90;;;;;;5059887;28;20045;-66
2023/05/11 05:35:08;;;;;;;32.65;16.60;;;12.10;99.90;;;;;;5063117;28;20158;-66
2023/05/11 05:37:34;;;;;;;32.35;16.08;;;12.10;99.90;;;;;;5050326;28;20491;-66
2023/05/11 05:39:59;;;;;;;33.60;16.38;;;12.10;99.90;;;;;;5049307;28;20498;-66
2023/05/11 05:42:25;;;;;;;29.08;15.35;;;12.10;99.90;;;;;;5050822;28;20037;-66
2023/05/11 05:44:51;;;;;;;29.63;15.52;;;12.20;99.90;;;;;;5052869;28;20044;-66
2023/05/11 05:47:16;;;;;;;33.30;16.45;;;12.10;99.90;;;;;;5051499;28;20052;-66
2023/05/11 05:49:42;;;;;;;32.60;16.45;;;12.20;99.90;;;;;;5052048;28;20490;-66
2023/05/11 05:52:09;;;;;;;31.77;16.67;;;12.20;99.90;;;;;;5053481;28;20037;-66
2023/05/11 05:54:34;;;;;;;34.35;16.65;;;12.20;99.90;;;;;;5053065;28;20041;-66
2023/05/11 05:57:00;;;;;;;33.55;16.88;;;12.20;99.90;;;;;;5050192;28;20452;-67
2023/05/11 05:59:26;;;;;;;37.08;18.08;;;12.20;99.90;;;;;;5051010;28;20387;-67
2023/05/11 06:01:51;;;;;;;33.20;16.90;;;12.20;99.90;;;;;;5049686;28;20037;-66
2023/05/11 06:04:17;;;;;;;36.25;17.05;;;12.20;99.90;;;;;;5051143;28;20123;-66
2023/05/11 06:06:43;;;;;;;37.17;18.42;;;12.30;99.90;;;;;;5050886;28;20501;-66
2023/05/11 06:09:08;;;;;;;33.50;16.73;;;12.30;99.90;;;;;;5049006;28;20037;-66
2023/05/11 06:11:34;;;;;;;36.30;16.95;;;12.30;99.90;;;;;;5051631;28;20063;-67
2023/05/11 06:13:59;;;;;;;33.58;16.27;;;12.30;99.90;;;;;;5052281;28;20086;-66
2023/05/11 06:16:26;;;;;;;37.58;18.20;;;12.30;99.90;;;;;;5047717;28;20037;-66
2023/05/11 06:18:52;;;;;;;38.70;17.77;;;12.30;99.90;;;;;;5052055;28;20052;-66
2023/05/11 06:21:17;;;;;;;32.95;16.10;;;12.40;99.90;;;;;;5052722;28;20045;-66
2023/05/11 06:23:43;;;;;;;32.35;16.45;;;12.40;99.90;;;;;;5053052;28;20082;-66
2023/05/11 06:26:08;;;;;;;35.70;15.98;;;12.50;99.90;;;;;;5054841;28;20131;-66
2023/05/11 06:28:34;;;;;;;37.00;17.90;;;12.50;99.90;;;;;;5057176;28;20037;-67
2023/05/11 06:31:02;;;;;;;38.50;18.05;;;12.40;99.90;;;;;;5060938;28;20088;-67
2023/05/11 06:33:28;;;;;;;40.05;18.35;;;12.50;99.90;;;;;;5055791;28;20402;-67
2023/05/11 06:35:53;;;;;;;35.72;16.65;;;12.60;99.90;;;;;;5052798;28;20047;-67
2023/05/11 06:38:19;;;;;;;37.50;17.05;;;12.60;99.90;;;;;;5059321;28;20028;-66
2023/05/11 06:40:45;;;;;;;33.95;17.33;;;12.60;99.90;;;;;;5061824;28;20049;-66
2023/05/11 06:43:10;;;;;;;34.63;16.55;;;12.60;99.90;;;;;;5028900;28;20124;-67
2023/05/11 06:45:36;;;;;;;37.15;18.25;;;12.60;99.90;;;;;;5048118;28;20482;-67
2023/05/11 06:48:02;;;;;;;39.78;18.17;;;12.60;99.90;;;;;;5052144;28;22428;-67
2023/05/11 06:50:28;;;;;;;42.80;18.77;;;12.60;99.90;;;;;;5066339;28;20482;-67
2023/05/11 06:52:54;;;;;;;36.53;17.70;;;12.50;99.90;;;;;;5073446;28;20043;-67
2023/05/11 06:55:20;;;;;;;39.85;18.58;;;12.50;99.90;;;;;;5060467;28;20052;-67
2023/05/11 06:57:45;;;;;;;41.90;18.73;;;12.60;99.90;;;;;;5068378;28;20044;-66
2023/05/11 07:00:11;;;;;;;35.38;17.90;;;12.60;99.90;;;;;;5062102;28;20396;-67
2023/05/11 07:02:37;;;;;;;38.25;18.75;;;12.60;99.90;;;;;;5053585;28;20068;-67
2023/05/11 07:05:03;;;;;;;37.78;18.70;;;12.60;99.90;;;;;;5033734;28;20482;-67
2023/05/11 07:07:29;;;;;;;39.88;18.08;;;12.60;99.90;;;;;;5056442;28;20028;-64
2023/05/11 07:09:54;;;;;;;40.05;18.52;;;12.60;99.90;;;;;;5048414;28;20118;-67
2023/05/11 07:12:20;;;;;;;39.40;18.58;;;12.60;99.90;;;;;;5051893;28;20032;-68
2023/05/11 07:14:45;;;;;;;39.45;18.50;;;12.70;99.90;;;;;;5059800;28;20045;-68
2023/05/11 07:17:11;;;;;;;37.80;18.30;;;12.60;99.90;;;;;;5059727;28;20087;-67
2023/05/11 07:19:36;;;;;;;47.20;18.73;;;12.70;99.90;;;;;;5053292;28;20041;-67
2023/05/11 07:22:02;;;;;;;33.85;16.80;;;12.70;99.90;;;;;;5052765;28;20044;-66
2023/05/11 07:24:28;;;;;;;37.63;17.55;;;12.70;99.90;;;;;;5052409;28;20035;-66
2023/05/11 07:26:54;;;;;;;39.72;17.73;;;12.70;99.90;;;;;;5047286;28;20061;-67
2023/05/11 07:29:20;;;;;;;38.80;16.75;;;12.70;99.90;;;;;;5050464;28;20495;-66
2023/05/11 07:31:47;;;;;;;30.23;15.05;;;12.70;99.90;;;;;;5051968;28;20048;-66
2023/05/11 07:34:12;;;;;;;26.63;12.70;;;12.70;99.90;;;;;;5056292;28;20445;-67
2023/05/11 07:36:38;;;;;;;26.92;11.82;;;12.70;99.90;;;;;;5052586;28;20041;-67
2023/05/11 07:39:03;;;;;;;27.40;12.52;;;12.70;99.90;;;;;;5048800;28;20033;-66
2023/05/11 07:41:29;;;;;;;24.23;12.55;;;12.70;99.90;;;;;;5050769;28;20494;-67
2023/05/11 07:43:55;;;;;;;23.55;12.27;;;12.70;99.90;;;;;;5043215;28;20037;-67
2023/05/11 07:46:21;;;;;;;25.90;12.32;;;12.70;99.90;;;;;;5038101;28;20449;-67
2023/05/11 07:48:46;;;;;;;21.00;11.13;;;12.80;99.90;;;;;;5038225;28;20033;-67
2023/05/11 07:51:12;;;;;;;24.42;11.45;;;12.80;99.90;;;;;;5046691;28;20037;-67
2023/05/11 07:53:38;;;;;;;19.55;10.30;;;12.80;99.90;;;;;;5074194;22;20135;-63
2023/05/11 07:56:04;;;;;;;20.20;9.80;;;12.80;99.90;;;;;;5052427;28;20033;-62
2023/05/11 07:58:31;;;;;;;20.20;8.93;;;12.80;99.90;;;;;;5061122;28;20040;-63
2023/05/11 08:00:57;;;;;;;13.82;7.00;;;12.80;99.90;;;;;;5034031;28;20498;-63
2023/05/11 08:03:22;;;;;;;10.60;5.05;;;12.70;99.90;;;;;;5052622;28;20048;-63
2023/05/11 08:05:48;;;;;;;9.73;4.32;;;12.80;99.90;;;;;;5052498;28;20114;-63
2023/05/11 08:08:14;;;;;;;11.15;5.68;;;12.70;99.90;;;;;;5060075;28;20032;-63
2023/05/11 08:10:40;;;;;;;7.78;3.78;;;12.70;99.90;;;;;;5051836;28;20063;-63
2023/05/11 08:13:06;;;;;;;5.72;3.17;;;12.70;99.90;;;;;;5072050;28;20036;-63
2023/05/11 08:15:32;;;;;;;5.60;2.80;;;12.60;99.90;;;;;;5071692;28;20052;-63
2023/05/11 08:17:59;;;;;;;6.60;3.42;;;12.60;99.90;;;;;;5072059;28;20529;-63
2023/05/11 08:20:25;;;;;;;7.78;3.42;;;12.60;99.90;;;;;;5069103;28;20474;-62
2023/05/11 08:22:50;;;;;;;5.65;2.88;;;12.60;99.90;;;;;;5070024;28;20037;-62
2023/05/11 08:25:16;;;;;;;7.32;2.72;;;12.60;99.90;;;;;;5071707;28;20051;-62
2023/05/11 08:27:42;;;;;;;6.22;3.13;;;12.50;99.90;;;;;;5071574;28;20101;-63
2023/05/11 08:30:08;;;;;;;7.93;4.13;;;12.50;99.90;;;;;;5035226;28;20406;-63
2023/05/11 08:32:34;;;;;;;4.47;2.85;;;12.50;99.90;;;;;;5064476;28;20032;-63
2023/05/11 08:35:00;;;;;;;6.13;3.05;;;12.50;99.90;;;;;;5063182;28;20033;-62
2023/05/11 08:37:26;;;;;;;3.95;2.10;;;12.50;99.90;;;;;;5055603;28;20153;-63
2023/05/11 08:39:51;;;;;;;2.70;1.33;;;12.50;99.90;;;;;;5061399;28;20036;-63
2023/05/11 08:42:18;;;;;;;6.90;1.90;;;12.50;99.90;;;;;;5048021;28;20055;-63
2023/05/11 08:44:46;;;;;;;2.95;1.83;;;12.50;99.90;;;;;;5068538;28;20063;-63
2023/05/11 08:47:13;;;;;;;3.45;1.67;;;12.60;99.90;;;;;;5057489;28;20059;-63
2023/05/11 08:49:39;;;;;;;3.92;2.00;;;12.50;99.90;;;;;;5048403;28;20037;-63
2023/05/11 08:52:05;;;;;;;4.25;1.90;;;12.50;99.90;;;;;;5066989;28;20033;-63
2023/05/11 08:54:31;;;;;;;2.70;1.60;;;12.50;99.90;;;;;;5068624;28;20032;-63
2023/05/11 08:56:58;;;;;;;2.85;1.67;;;12.50;99.90;;;;;;5063968;28;20048;-63
2023/05/11 08:59:28;;;;;;;4.25;1.10;;;12.50;99.90;;;;;;5058716;28;20047;-63
2023/05/11 09:01:55;;;;;;;4.40;1.35;;;12.40;99.90;;;;;;5067022;28;20029;-63
2023/05/11 09:04:23;;;;;;;1.83;0.80;;;12.50;99.90;;;;;;5062484;28;20047;-63
2023/05/11 09:06:50;;;;;;;1.83;1.10;;;12.50;99.90;;;;;;5050829;28;20037;-62
2023/05/11 09:09:17;;;;;;;0.90;0.70;;;12.60;99.90;;;;;;5049512;28;20487;-62
2023/05/11 09:11:43;;;;;;;1.30;0.88;;;12.70;99.90;;;;;;5052642;28;20041;-63
2023/05/11 09:14:09;;;;;;;2.53;1.20;;;12.70;99.90;;;;;;5070620;28;20103;-62
2023/05/11 09:16:35;;;;;;;1.77;1.13;;;12.80;99.90;;;;;;5070524;28;20158;-62
2023/05/11 09:19:02;;;;;;;1.48;0.88;;;12.90;99.90;;;;;;5065556;28;20048;-62
2023/05/11 09:21:30;;;;;;;3.70;1.70;;;13.00;99.90;;;;;;5050982;28;20047;-63
2023/05/11 09:23:57;;;;;;;3.90;2.05;;;13.00;99.90;;;;;;5050736;28;20036;-62
2023/05/11 09:26:24;;;;;;;3.55;1.95;;;13.20;99.90;;;;;;5056146;28;20067;-62
2023/05/11 09:28:57;;;;;;;4.32;2.33;;;13.40;99.90;;;;;;5066499;28;20103;-63
2023/05/11 09:31:43;;;;;;;3.22;1.58;;;13.50;99.90;;;;;;5051686;28;20037;-63
2023/05/11 09:34:15;;;;;;;5.45;2.67;;;13.80;99.90;;;;;;5061969;28;20040;-63
2023/05/11 09:36:52;;;;;;;4.10;2.50;;;13.90;99.90;;;;;;5053449;28;20127;-63
2023/05/11 09:39:30;;;;;;;4.03;2.15;;;14.00;99.90;;;;;;5070243;28;20093;-63
2023/05/11 09:42:15;;;;;;;4.35;2.42;;;13.90;99.90;;;;;;5062665;28;20036;-63
2023/05/11 09:44:41;;;;;;;6.97;2.15;;;14.00;99.90;;;;;;5071487;28;20513;-63
2023/05/11 09:47:15;;;;;;;5.15;2.85;;;14.00;99.90;;;;;;5066269;28;20107;-63
2023/05/11 09:49:42;;;;;;;4.78;2.63;;;14.10;99.90;;;;;;5051088;28;20052;-63
2023/05/11 09:52:12;;;;;;;6.43;3.47;;;14.00;99.90;;;;;;5054038;28;20058;-63
2023/05/11 09:54:49;;;;;;;6.80;3.97;;;14.00;99.90;;;;;;5044745;28;20112;-63
2023/05/11 09:57:25;;;;;;;6.10;3.85;;;14.00;99.90;;;;;;5054216;28;20291;-63
2023/05/11 09:59:52;;;;;;;5.57;3.10;;;13.90;99.90;;;;;;5053030;28;20194;-63
2023/05/11 10:02:18;;;;;;;3.28;2.03;;;13.90;99.90;;;;;;5055162;28;20124;-63
2023/05/11 10:04:44;;;;;;;4.90;2.80;;;13.80;99.90;;;;;;5059050;28;20044;-63
2023/05/11 10:07:10;;;;;;;4.60;2.53;;;13.80;99.90;;;;;;5053926;28;20040;-63
2023/05/11 10:09:37;;;;;;;3.97;2.40;;;13.70;99.90;;;;;;5054528;28;20040;-63
2023/05/11 10:12:05;;;;;;;4.68;2.35;;;13.60;99.90;;;;;;5065111;28;20040;-63
2023/05/11 10:14:32;;;;;;;5.22;2.40;;;13.60;99.90;;;;;;5060455;28;20036;-63
2023/05/11 10:17:01;;;;;;;3.65;2.15;;;13.60;99.90;;;;;;5054474;28;20040;-63
2023/05/11 10:19:26;;;;;;;4.57;2.38;;;13.60;99.90;;;;;;5050132;28;20052;-63
2023/05/11 10:21:54;;;;;;;4.90;2.67;;;13.70;99.90;;;;;;5045557;28;20033;-63
2023/05/11 10:24:38;;;;;;;3.88;2.17;;;13.80;99.90;;;;;;5062437;28;20033;-62
2023/05/11 10:27:04;;;;;;;3.33;2.28;;;13.90;99.90;;;;;;5066864;28;20032;-63
2023/05/11 10:29:31;;;;;;;5.32;2.92;;;14.00;99.90;;;;;;5061472;28;20033;-63
2023/05/11 10:31:58;;;;;;;6.93;3.50;;;14.10;99.90;;;;;;5053164;28;20073;-63
2023/05/11 10:34:25;;;;;;;7.28;3.83;;;14.20;99.90;;;;;;5064105;28;20556;-62
2023/05/11 10:36:51;;;;;;;7.20;4.10;;;14.30;99.90;;;;;;5054540;28;20115;-63
2023/05/11 10:39:17;;;;;;;8.73;5.18;;;14.30;99.90;;;;;;5062172;28;20040;-63
2023/05/11 10:42:07;;;;;;;9.90;6.25;;;14.40;99.90;;;;;;5060193;28;20044;-63
2023/05/11 10:45:10;;;;;;;14.83;8.10;;;14.50;99.90;;;;;;5060317;28;20119;-63
2023/05/11 10:47:50;;;;;;;13.68;8.18;;;14.50;99.90;;;;;;5067073;28;20363;-63
2023/05/11 10:50:23;;;;;;;15.45;9.38;;;14.50;99.90;;;;;;5053574;28;20048;-63
2023/05/11 10:53:07;;;;;;;20.92;10.70;;;14.50;99.90;;;;;;5061614;28;20044;-64
2023/05/11 10:55:44;;;;;;;18.60;11.20;;;14.60;99.90;;;;;;5069760;28;20043;-63
2023/05/11 10:58:14;;;;;;;21.35;11.85;;;14.70;99.90;;;;;;5064640;28;20532;-62
2023/05/11 11:00:51;;;;;;;20.35;11.45;;;14.70;99.90;;;;;;5073386;28;20036;-63
2023/05/11 11:03:17;;;;;;;18.95;11.13;;;14.80;99.90;;;;;;5062473;28;20040;-63
2023/05/11 11:05:43;;;;;;;19.83;12.23;;;14.70;99.90;;;;;;5065232;28;20044;-62
2023/05/11 11:08:10;;;;;;;18.45;10.90;;;14.80;99.90;;;;;;5071585;28;20051;-62
2023/05/11 11:10:38;;;;;;;17.00;10.65;;;14.80;99.90;;;;;;5062846;28;20050;-63
2023/05/11 11:13:09;;;;;;;19.02;11.25;;;14.80;99.90;;;;;;5066324;28;20040;-63
2023/05/11 11:15:53;;;;;;;16.92;10.63;;;14.90;99.90;;;;;;5053417;28;20414;-63
2023/05/11 11:18:26;;;;;;;20.48;11.82;;;14.90;99.90;;;;;;5071994;28;20290;-63
2023/05/11 11:20:54;;;;;;;18.98;11.32;;;14.90;99.90;;;;;;5054881;28;20090;-63
2023/05/11 11:23:38;;;;;;;19.27;12.48;;;14.90;99.90;;;;;;5051977;28;20047;-63
2023/05/11 11:26:05;;;;;;;25.88;14.43;;;14.90;99.90;;;;;;5063276;28;20119;-63
2023/05/11 11:29:09;;;;;;;26.38;14.48;;;15.00;99.90;;;;;;5047310;28;20029;-63
2023/05/11 11:31:35;;;;;;;25.58;14.25;;;15.10;99.90;;;;;;5060335;28;20090;-63
2023/05/11 11:34:23;;;;;;;21.25;14.07;;;15.10;99.90;;;;;;5046854;28;20140;-63
2023/05/11 11:36:54;;;;;;;23.42;14.05;;;15.00;99.90;;;;;;5059851;28;20041;-63
2023/05/11 11:39:27;;;;;;;24.67;15.80;;;15.00;99.90;;;;;;5067500;28;20037;-63
2023/05/11 11:42:04;;;;;;;23.02;14.68;;;15.00;99.90;;;;;;5057459;28;20500;-63
2023/05/11 11:44:30;;;;;;;23.50;14.30;;;15.00;99.90;;;;;;5056637;28;20040;-63
2023/05/11 11:47:21;;;;;;;27.83;15.90;;;15.00;99.90;;;;;;5063641;28;20041;-63
2023/05/11 11:49:48;;;;;;;;;;;15.10;99.90;;;;;;5070487;28;20486;-63
2023/05/11 11:52:32;;;;;;;24.40;14.50;;;15.00;99.90;;;;;;5058962;28;20014;-63
2023/05/11 11:54:59;;;;;;;25.85;15.52;;;15.10;99.90;;;;;;5068802;28;20041;-63
2023/05/11 11:57:34;;;;;;;25.20;15.63;;;15.00;99.90;;;;;;5053182;28;20486;-63
2023/05/11 12:00:10;;;;;;;22.63;14.38;;;15.20;99.90;;;;;;5070564;28;20032;-63
2023/05/11 12:02:44;;;;;;;23.83;14.80;;;15.20;99.90;;;;;;5045473;28;20394;-63
2023/05/11 12:05:12;;;;;;;23.35;15.70;;;15.30;99.90;;;;;;5063457;28;20140;-63
2023/05/11 12:07:46;;;;;;;25.15;15.13;;;15.20;99.90;;;;;;5053243;28;20052;-62
2023/05/11 12:10:13;;;;;;;22.48;12.85;;;15.30;99.90;;;;;;5063027;28;20086;-63
2023/05/11 12:12:39;;;;;;;21.02;13.98;;;15.30;99.90;;;;;;5061537;28;20033;-63
2023/05/11 12:15:21;;;;;;;21.88;13.50;;;15.30;99.90;;;;;;5063405;28;20029;-63
2023/05/11 12:17:46;;;;;;;17.70;11.95;;;15.30;99.90;;;;;;5065727;28;20242;-63
2023/05/11 12:20:15;;;;;;;18.85;11.57;;;15.30;99.90;;;;;;5065336;28;21157;-63
2023/05/11 12:22:43;;;;;;;20.92;12.32;;;15.30;99.90;;;;;;5057644;28;20071;-63
2023/05/11 12:25:11;;;;;;;19.95;11.95;;;15.30;99.90;;;;;;5064645;28;20056;-63
2023/05/11 12:27:45;;;;;;;22.92;12.25;;;15.30;99.90;;;;;;5066085;28;20435;-63
2023/05/11 12:30:22;;;;;;;18.33;12.18;;;15.40;99.90;;;;;;5061757;28;20112;-63
2023/05/11 12:32:47;;;;;;;20.02;11.57;;;15.50;99.90;;;;;;5055622;28;20519;-63
2023/05/11 12:35:15;;;;;;;18.75;11.95;;;15.60;99.90;;;;;;5069802;28;20043;-63
2023/05/11 12:37:44;;;;;;;17.58;10.32;;;15.70;99.90;;;;;;5069835;28;20037;-63